Time;durP1;ratioP1;P1;durP2;ratioP2;P2;SDS_P1;SDS_P2;PMS_P1;PMS_P2;Temp;Humidity;BMP_temperature;BMP_pressure;BME280_temperature;BME280_humidity;BME280_pressure;Samples;Min_cycle;Max_cycle;Signal;HPM_P1;HPM_P2
2023/08/01 00:00:27;;;;;;;;;;;;;;;16.19;100.00;99862.16;4980096;28;19918;-60
2023/08/01 00:02:52;;;;;;;;;;;;;;;16.13;100.00;99855.25;4971905;28;19906;-60
2023/08/01 00:05:17;;;;;;;;;;;;;;;16.04;100.00;99848.38;4971667;28;19910;-60
2023/08/01 00:07:42;;;;;;;;;;;;;;;16.10;100.00;99843.00;4972683;28;19914;-60
2023/08/01 00:10:08;;;;;;;;;;;;;;;16.04;100.00;99845.75;4976467;28;20328;-60
2023/08/01 00:12:33;;;;;;;;;;;;;;;16.05;100.00;99843.97;4971866;28;19914;-60
2023/08/01 00:14:58;;;;;;;;;;;;;;;16.00;100.00;99836.16;4982827;28;20001;-60
2023/08/01 00:17:24;;;;;;;;;;;;;;;15.97;100.00;99836.22;4977782;28;19914;-60
2023/08/01 00:19:49;;;;;;;;;;;;;;;15.97;100.00;99825.69;4975511;28;19980;-60
2023/08/01 00:22:14;;;;;;;;;;;;;;;16.04;100.00;99842.25;4975699;28;20153;-60
2023/08/01 00:24:39;;;;;;;;;;;;;;;15.96;100.00;99842.34;4978892;28;20390;-60
2023/08/01 00:27:05;;;;;;;;;;;;;;;15.96;100.00;99842.34;4991076;28;19930;-60
2023/08/01 00:29:30;;;;;;;;;;;;;;;15.94;100.00;99846.78;4991327;28;20268;-60
2023/08/01 00:31:55;;;;;;;;;;;;;;;15.89;100.00;99841.59;4980776;28;19925;-61
2023/08/01 00:34:21;;;;;;;;;;;;;;;15.91;100.00;99836.31;4980020;28;19917;-60
2023/08/01 00:36:46;;;;;;;;;;;;;;;15.90;100.00;99832.81;4975149;28;19910;-60
2023/08/01 00:39:11;;;;;;;;;;;;;;;15.90;100.00;99830.19;4975353;28;20348;-61
2023/08/01 00:41:36;;;;;;;;;;;;;;;15.85;100.00;99825.91;4978065;28;19993;-60
2023/08/01 00:44:01;;;;;;;;;;;;;;;15.86;100.00;99822.34;4994006;28;19913;-60
2023/08/01 00:46:27;;;;;;;;;;;;;;;15.85;100.00;99829.38;4976428;28;20340;-60
2023/08/01 00:48:53;;;;;;;;;;;;;;;15.80;100.00;99834.72;4985321;28;19918;-60
2023/08/01 00:51:18;;;;;;;;;;;;;;;15.77;100.00;99829.47;4977833;28;19910;-60
2023/08/01 00:53:45;;;;;;;;;;;;;;;15.75;100.00;99828.59;4975213;28;20467;-60
2023/08/01 00:56:10;;;;;;;;;;;;;;;15.79;100.00;99826.84;4974853;28;20383;-60
2023/08/01 00:58:35;;;;;;;;;;;;;;;15.72;100.00;99831.28;4978673;28;19910;-60
2023/08/01 01:01:03;;;;;;;;;;;;;;;15.67;100.00;99837.47;4990603;28;19924;-60
2023/08/01 01:03:28;;;;;;;;;;;;;;;15.64;100.00;99834.03;4975408;28;19924;-60
2023/08/01 01:05:57;;;;;;;;;;;;;;;15.63;100.00;99836.66;4987631;28;19914;-60
2023/08/01 01:08:22;;;;;;;;;;;;;;;15.62;100.00;99832.28;4993946;28;19914;-60
2023/08/01 01:10:47;;;;;;;;;;;;;;;15.61;100.00;99825.31;4993957;28;19975;-60
2023/08/01 01:13:13;;;;;;;;;;;;;;;15.61;100.00;99822.66;4993933;28;19914;-60
2023/08/01 01:15:38;;;;;;;;;;;;;;;15.61;100.00;99818.31;4990984;28;19932;-60
2023/08/01 01:18:03;;;;;;;;;;;;;;;15.57;100.00;99820.97;4990953;28;21727;-60
2023/08/01 01:20:35;;;;;;;;;;;;;;;15.58;100.00;99817.47;4983496;28;19980;-60
2023/08/01 01:23:01;;;;;;;;;;;;;;;15.56;100.00;99820.13;4974384;28;19937;-60
2023/08/01 01:25:27;;;;;;;;;;;;;;;15.56;100.00;99819.25;4974571;28;20300;-60
2023/08/01 01:27:53;;;;;;;;;;;;;;;15.56;100.00;99824.50;4974067;28;19922;-60
2023/08/01 01:30:19;;;;;;;;;;;;;;;15.57;100.00;99828.84;4971975;28;20496;-60
2023/08/01 01:32:45;;;;;;;;;;;;;;;15.52;100.00;99823.66;4976426;28;19940;-60
2023/08/01 01:35:10;;;;;;;;;;;;;;;15.39;100.00;99825.56;4988802;28;20380;-60
2023/08/01 01:37:35;;;;;;;;;;;;;;;15.34;100.00;99818.66;4979373;28;19914;-59
2023/08/01 01:40:00;;;;;;;;;;;;;;;15.36;100.00;99815.13;4974261;28;20057;-60
2023/08/01 01:42:25;;;;;;;;;;;;;;;15.27;100.00;99812.63;4974451;28;20044;-60
2023/08/01 01:44:51;;;;;;;;;;;;;;;15.31;100.00;99814.34;4974396;28;19916;-60
2023/08/01 01:47:17;;;;;;;;;;;;;;;15.35;100.00;99826.53;4973889;28;19937;-60
2023/08/01 01:49:42;;;;;;;;;;;;;;;15.31;100.00;99814.34;4981570;28;19913;-60
2023/08/01 01:52:07;;;;;;;;;;;;;;;15.26;100.00;99810.88;4990839;28;20384;-60
2023/08/01 01:54:32;;;;;;;;;;;;;;;15.28;100.00;99814.38;4974072;28;19920;-60
2023/08/01 01:56:57;;;;;;;;;;;;;;;15.27;100.00;99810.00;4973920;28;19960;-60
2023/08/01 01:59:23;;;;;;;;;;;;;;;15.18;100.00;99808.34;4984561;28;19933;-60
2023/08/01 02:01:48;;;;;;;;;;;;;;;15.16;100.00;99806.63;4993320;28;19924;-60
2023/08/01 02:04:13;;;;;;;;;;;;;;;15.16;100.00;99810.13;4990474;28;19925;-60
2023/08/01 02:06:38;;;;;;;;;;;;;;;15.24;100.00;99812.66;4985616;28;19910;-60
2023/08/01 02:09:04;;;;;;;;;;;;;;;15.20;100.00;99816.22;4983523;28;19918;-60
2023/08/01 02:11:29;;;;;;;;;;;;;;;15.07;100.00;99811.09;4973579;28;19910;-60
2023/08/01 02:13:54;;;;;;;;;;;;;;;15.01;100.00;99802.44;4981172;28;20320;-60
2023/08/01 02:16:20;;;;;;;;;;;;;;;15.00;100.00;99809.41;4973545;28;19913;-60
2023/08/01 02:18:45;;;;;;;;;;;;;;;14.93;100.00;99813.00;4975976;28;19913;-60
2023/08/01 02:21:10;;;;;;;;;;;;;;;14.93;100.00;99813.88;4987794;28;20016;-60
2023/08/01 02:23:37;;;;;;;;;;;;;;;14.91;100.00;99810.41;4981540;28;20001;-60
2023/08/01 02:26:02;;;;;;;;;;;;;;;14.91;100.00;99805.16;4990477;28;19914;-60
2023/08/01 02:28:27;;;;;;;;;;;;;;;14.81;100.00;99808.75;4989983;28;20413;-60
2023/08/01 02:30:53;;;;;;;;;;;;;;;14.94;100.00;99810.34;4980966;28;19917;-60
2023/08/01 02:33:18;;;;;;;;;;;;;;;14.87;100.00;99815.69;4986807;28;19972;-60
2023/08/01 02:35:43;;;;;;;;;;;;;;;14.83;100.00;99817.50;4986824;28;19922;-60
2023/08/01 02:38:08;;;;;;;;;;;;;;;14.80;100.00;99820.13;4982258;28;19933;-60
2023/08/01 02:40:33;;;;;;;;;;;;;;;14.81;100.00;99823.63;4982898;28;19914;-60
2023/08/01 02:42:59;;;;;;;;;;;;;;;14.76;100.00;99826.31;4983227;28;19918;-60
2023/08/01 02:45:25;;;;;;;;;;;;;;;14.80;100.00;99827.13;4977080;28;19952;-60
2023/08/01 02:47:50;;;;;;;;;;;;;;;14.76;100.00;99828.94;4983403;28;20265;-60
2023/08/01 02:50:15;;;;;;;;;;;;;;;14.80;100.00;99829.75;4980918;28;19909;-60
2023/08/01 02:52:40;;;;;;;;;;;;;;;14.81;100.00;99834.13;4983197;28;19921;-60
2023/08/01 02:55:06;;;;;;;;;;;;;;;14.83;100.00;99837.59;4982055;28;20364;-60
2023/08/01 02:57:31;;;;;;;;;;;;;;;14.85;100.00;99835.84;4982713;28;19925;-60
2023/08/01 02:59:56;;;;;;;;;;;;;;;14.86;100.00;99832.31;4981494;28;20376;-58
2023/08/01 03:02:21;;;;;;;;;;;;;;;14.89;100.00;99834.94;4982473;28;19917;-60
2023/08/01 03:04:47;;;;;;;;;;;;;;;14.85;100.00;99831.44;4983013;28;19929;-60
2023/08/01 03:07:12;;;;;;;;;;;;;;;14.85;100.00;99826.22;4982239;28;20265;-60
2023/08/01 03:09:37;;;;;;;;;;;;;;;14.85;100.00;99820.09;4987364;28;19924;-60
2023/08/01 03:12:03;;;;;;;;;;;;;;;14.85;100.00;99820.09;4985052;28;20404;-59
2023/08/01 03:14:28;;;;;;;;;;;;;;;14.88;100.00;99814.81;4987117;28;19918;-60
2023/08/01 03:16:53;;;;;;;;;;;;;;;14.87;100.00;99834.91;4984755;28;19922;-60
2023/08/01 03:19:18;;;;;;;;;;;;;;;14.88;100.00;99825.31;4980226;28;20416;-60
2023/08/01 03:21:43;;;;;;;;;;;;;;;14.85;100.00;99828.81;4983489;28;19925;-60
2023/08/01 03:24:09;;;;;;;;;;;;;;;14.88;100.00;99825.31;4980971;28;19918;-60
2023/08/01 03:26:37;;;;;;;;;;;;;;;14.87;100.00;99820.94;4986669;28;19972;-59
2023/08/01 03:29:02;;;;;;;;;;;;;;;14.91;100.00;99825.28;4981324;28;19918;-60
2023/08/01 03:31:28;;;;;;;;;;;;;;;14.91;100.00;99836.63;4980155;28;20372;-59
2023/08/01 03:33:54;;;;;;;;;;;;;;;14.93;100.00;99829.63;4980069;28;19917;-60
2023/08/01 03:36:20;;;;;;;;;;;;;;;14.93;100.00;99823.50;4988464;28;19961;-60
2023/08/01 03:38:45;;;;;;;;;;;;;;;14.90;100.00;99834.91;4981044;28;19945;-60
2023/08/01 03:41:10;;;;;;;;;;;;;;;14.91;100.00;99834.00;4981117;28;19921;-60
2023/08/01 03:43:36;;;;;;;;;;;;;;;14.87;100.00;99828.81;4983366;28;20024;-60
2023/08/01 03:46:01;;;;;;;;;;;;;;;14.88;100.00;99830.56;4981748;28;19918;-60
2023/08/01 03:48:26;;;;;;;;;;;;;;;14.92;100.00;99835.75;4981754;28;19921;-60
2023/08/01 03:50:52;;;;;;;;;;;;;;;15.01;100.00;99836.53;4981919;28;19968;-60
2023/08/01 03:53:17;;;;;;;;;;;;;;;14.99;100.00;99835.69;4981052;28;20392;-60
2023/08/01 03:55:43;;;;;;;;;;;;;;;14.98;100.00;99832.19;4981351;28;19925;-60
2023/08/01 03:58:08;;;;;;;;;;;;;;;14.94;100.00;99836.59;4981312;28;20024;-60
2023/08/01 04:00:34;;;;;;;;;;;;;;;14.91;100.00;99841.88;4981633;28;20004;-60
2023/08/01 04:02:59;;;;;;;;;;;;;;;14.92;100.00;99842.75;4984088;28;19921;-60
2023/08/01 04:05:24;;;;;;;;;;;;;;;14.94;100.00;99835.72;4980297;28;20387;-60
2023/08/01 04:07:50;;;;;;;;;;;;;;;14.90;100.00;99828.78;4979993;28;20356;-60
2023/08/01 04:10:15;;;;;;;;;;;;;;;14.95;100.00;99826.97;4983090;28;19920;-59
2023/08/01 04:12:42;;;;;;;;;;;;;;;15.01;100.00;99826.91;4981972;28;19960;-60
2023/08/01 04:15:07;;;;;;;;;;;;;;;14.93;100.00;99828.75;4982033;28;19914;-60
2023/08/01 04:17:32;;;;;;;;;;;;;;;14.93;100.00;99833.97;4982985;28;19914;-60
2023/08/01 04:19:57;;;;;;;;;;;;;;;14.92;100.00;99833.13;4982746;28;19937;-59
2023/08/01 04:22:23;;;;;;;;;;;;;;;14.94;100.00;99835.72;4983459;28;19922;-60
2023/08/01 04:24:48;;;;;;;;;;;;;;;14.92;100.00;99838.38;4980985;28;19918;-60
2023/08/01 04:27:13;;;;;;;;;;;;;;;14.97;100.00;99833.06;4982288;28;19913;-60
2023/08/01 04:29:38;;;;;;;;;;;;;;;14.98;100.00;99826.09;4982252;28;20356;-60
2023/08/01 04:32:04;;;;;;;;;;;;;;;14.99;100.00;99828.69;4981324;28;20315;-58
2023/08/01 04:34:29;;;;;;;;;;;;;;;14.97;100.00;99827.81;4981334;28;19914;-59
2023/08/01 04:36:55;;;;;;;;;;;;;;;14.97;100.00;99827.81;4978998;28;20324;-60
2023/08/01 04:39:20;;;;;;;;;;;;;;;14.97;100.00;99830.44;4981997;28;20457;-60
2023/08/01 04:41:45;;;;;;;;;;;;;;;14.98;100.00;99836.59;4976013;28;19992;-59
2023/08/01 04:44:10;;;;;;;;;;;;;;;14.98;100.00;99834.81;4976655;28;19960;-60
2023/08/01 04:46:35;;;;;;;;;;;;;;;14.99;100.00;99833.94;4982886;28;20328;-59
2023/08/01 04:49:01;;;;;;;;;;;;;;;15.07;100.00;99841.72;4981451;28;19961;-59
2023/08/01 04:51:26;;;;;;;;;;;;;;;15.04;100.00;99842.63;4981119;28;19913;-60
2023/08/01 04:53:51;;;;;;;;;;;;;;;15.07;100.00;99853.06;4986491;28;19941;-60
2023/08/01 04:56:16;;;;;;;;;;;;;;;15.12;100.00;99850.41;4978986;28;19920;-60
2023/08/01 04:58:42;;;;;;;;;;;;;;;15.07;100.00;99853.06;4981046;28;20376;-60
2023/08/01 05:01:07;;;;;;;;;;;;;;;15.09;100.00;99855.69;4981730;28;19968;-60
2023/08/01 05:03:32;;;;;;;;;;;;;;;15.06;100.00;99851.34;4981313;28;19909;-61
2023/08/01 05:05:57;;;;;;;;;;;;;;;15.05;100.00;99852.22;4984279;28;21848;-60
2023/08/01 05:08:22;;;;;;;;;;;;;;;15.10;100.00;99857.41;4984138;28;20515;-60
2023/08/01 05:10:48;;;;;;;;;;;;;;;15.04;100.00;99850.47;4986900;28;19928;-60
2023/08/01 05:13:13;;;;;;;;;;;;;;;15.01;100.00;99850.53;4984037;28;19917;-60
2023/08/01 05:15:38;;;;;;;;;;;;;;;15.02;100.00;99854.00;4984809;28;20530;-60
2023/08/01 05:18:03;;;;;;;;;;;;;;;15.03;100.00;99856.59;4986394;28;20435;-60
2023/08/01 05:20:30;;;;;;;;;;;;;;;15.03;100.00;99856.59;4980032;28;20436;-60
2023/08/01 05:22:59;;;;;;;;;;;;;;;15.04;100.00;99852.25;4974563;28;19914;-60
2023/08/01 05:25:24;;;;;;;;;;;;;;;15.03;100.00;99859.22;4984875;28;19925;-60
2023/08/01 05:27:49;;;;;;;;;;;;;;;15.05;100.00;99854.00;4974463;28;19969;-60
2023/08/01 05:30:14;;;;;;;;;;;;;;;15.11;100.00;99856.53;4977718;28;19910;-60
2023/08/01 05:32:40;;;;;;;;;;;;;;;15.06;100.00;99851.34;4977791;28;20276;-60
2023/08/01 05:35:06;;;;;;;;;;;;;;;15.06;100.00;99861.84;4981998;28;19914;-60
2023/08/01 05:37:31;;;;;;;;;;;;;;;15.03;100.00;99861.00;4974183;28;19918;-60
2023/08/01 05:39:56;;;;;;;;;;;;;;;15.01;100.00;99858.38;4982346;28;19967;-60
2023/08/01 05:42:21;;;;;;;;;;;;;;;15.03;100.00;99856.59;4985633;28;19921;-60
2023/08/01 05:44:46;;;;;;;;;;;;;;;15.08;100.00;99867.94;4989790;28;19926;-60
2023/08/01 05:47:12;;;;;;;;;;;;;;;15.08;100.00;99865.31;4987228;28;19918;-60
2023/08/01 05:49:37;;;;;;;;;;;;;;;15.12;100.00;99860.91;4989870;28;19928;-60
2023/08/01 05:52:02;;;;;;;;;;;;;;;15.13;100.00;99862.63;4987245;28;19913;-60
2023/08/01 05:54:27;;;;;;;;;;;;;;;15.25;100.00;99872.13;4984508;28;19918;-60
2023/08/01 05:56:53;;;;;;;;;;;;;;;15.42;100.00;99862.28;4983413;28;19917;-60
2023/08/01 05:59:19;;;;;;;;;;;;;;;15.37;100.00;99874.63;4984638;28;19917;-60
2023/08/01 06:01:44;;;;;;;;;;;;;;;15.31;100.00;99872.06;4984308;28;19921;-60
2023/08/01 06:04:10;;;;;;;;;;;;;;;15.38;100.00;99873.75;4983099;28;20020;-60
2023/08/01 06:06:35;;;;;;;;;;;;;;;15.35;100.00;99873.78;4981212;28;20007;-60
2023/08/01 06:09:00;;;;;;;;;;;;;;;15.43;100.00;99877.16;4983829;28;19949;-60
2023/08/01 06:11:26;;;;;;;;;;;;;;;15.42;100.00;99875.41;4983050;28;19972;-60
2023/08/01 06:13:52;;;;;;;;;;;;;;;15.40;100.00;99874.56;4983495;28;19917;-60
2023/08/01 06:16:17;;;;;;;;;;;;;;;15.47;100.00;99872.75;4983939;28;20387;-60
2023/08/01 06:18:42;;;;;;;;;;;;;;;15.56;100.00;99891.00;4982650;28;20057;-60
2023/08/01 06:21:07;;;;;;;;;;;;;;;15.54;100.00;99886.66;4982665;28;19920;-60
2023/08/01 06:23:32;;;;;;;;;;;;;;;15.66;100.00;99889.16;4983547;28;20395;-60
2023/08/01 06:25:58;;;;;;;;;;;;;;;15.58;100.00;99888.38;4982938;28;19972;-60
2023/08/01 06:28:23;;;;;;;;;;;;;;;15.76;100.00;99896.00;4983159;28;20303;-60
2023/08/01 06:30:48;;;;;;;;;;;;;;;15.87;100.00;99887.16;4981756;28;20261;-60
2023/08/01 06:33:13;;;;;;;;;;;;;;;15.68;100.00;99884.72;4983061;28;19917;-60
2023/08/01 06:35:40;;;;;;;;;;;;;;;15.77;100.00;99889.88;4982227;28;19921;-60
2023/08/01 06:38:05;;;;;;;;;;;;;;;15.64;100.00;99883.03;4984360;28;19921;-61
2023/08/01 06:40:30;;;;;;;;;;;;;;;15.66;100.00;99891.78;4984583;28;19913;-60
2023/08/01 06:42:55;;;;;;;;;;;;;;;15.63;100.00;99891.81;4982418;28;19917;-59
2023/08/01 06:45:21;;;;;;;;;;;;;;;15.74;100.00;99892.56;4983383;28;20328;-60
2023/08/01 06:47:46;;;;;;;;;;;;;;;15.73;100.00;99889.91;4981625;28;20332;-60
2023/08/01 06:50:11;;;;;;;;;;;;;;;15.77;100.00;99896.88;4984359;28;19928;-60
2023/08/01 06:52:36;;;;;;;;;;;;;;;15.97;100.00;99904.53;4982434;28;19914;-60
2023/08/01 06:55:02;;;;;;;;;;;;;;;15.96;100.00;99914.19;4984577;28;20328;-60
2023/08/01 06:57:27;;;;;;;;;;;;;;;16.14;100.00;99907.78;4982037;28;20000;-60
2023/08/01 06:59:53;;;;;;;;;;;;;;;16.16;100.00;99905.13;4983340;28;19914;-60
2023/08/01 07:02:18;;;;;;;;;;;;;;;16.16;100.00;99910.38;4989988;28;19913;-60
2023/08/01 07:04:43;;;;;;;;;;;;;;;16.22;100.00;99914.69;4982267;28;19918;-60
2023/08/01 07:07:08;;;;;;;;;;;;;;;16.19;100.00;99914.72;4990415;28;19945;-60
2023/08/01 07:09:34;;;;;;;;;;;;;;;16.30;100.00;99921.56;4982079;28;19940;-60
2023/08/01 07:11:59;;;;;;;;;;;;;;;16.15;100.00;99924.44;4984453;28;19957;-60
2023/08/01 07:14:24;;;;;;;;;;;;;;;16.15;100.00;99925.28;4985008;28;19921;-60
2023/08/01 07:16:49;;;;;;;;;;;;;;;16.26;100.00;99926.91;4974214;28;19932;-60
2023/08/01 07:19:14;;;;;;;;;;;;;;;16.25;100.00;99922.53;4983757;28;20356;-60
2023/08/01 07:21:40;;;;;;;;;;;;;;;16.34;100.00;99914.53;4982936;28;20009;-60
2023/08/01 07:24:05;;;;;;;;;;;;;;;16.31;100.00;99914.56;4983182;28;19945;-60
2023/08/01 07:26:31;;;;;;;;;;;;;;;16.37;100.00;99917.09;4987250;28;19917;-60
2023/08/01 07:28:56;;;;;;;;;;;;;;;16.46;100.00;99903.78;4987479;28;19918;-61
2023/08/01 07:31:21;;;;;;;;;;;;;;;16.66;100.00;99900.84;4985594;28;19914;-60
2023/08/01 07:33:46;;;;;;;;;;;;;;;16.68;100.00;99908.72;4987865;28;19925;-60
2023/08/01 07:36:12;;;;;;;;;;;;;;;16.73;100.00;99913.88;4990146;28;20395;-60
2023/08/01 07:38:37;;;;;;;;;;;;;;;16.71;100.00;99913.91;4971871;28;19914;-59
2023/08/01 07:41:07;;;;;;;;;;;;;;;16.77;100.00;99913.84;4980981;28;19914;-60
2023/08/01 07:43:32;;;;;;;;;;;;;;;16.77;100.00;99918.22;4983352;28;19910;-60
2023/08/01 07:45:58;;;;;;;;;;;;;;;16.78;100.00;99915.53;4984217;28;19921;-60
2023/08/01 07:48:23;;;;;;;;;;;;;;;16.68;100.00;99920.13;4980208;28;20016;-60
2023/08/01 07:50:48;;;;;;;;;;;;;;;16.71;100.00;99919.19;4984066;28;20295;-60
2023/08/01 07:53:13;;;;;;;;;;;;;;;16.65;100.00;99914.03;4987183;28;20287;-60
2023/08/01 07:55:38;;;;;;;;;;;;;;;16.76;100.00;99913.88;4989150;28;19913;-59
2023/08/01 07:58:04;;;;;;;;;;;;;;;16.74;100.00;99915.63;4985827;28;19918;-60
2023/08/01 08:00:29;;;;;;;;;;;;;;;16.89;100.00;99925.94;4984731;28;19914;-60
2023/08/01 08:02:54;;;;;;;;;;;;;;;16.88;100.00;99920.72;4983981;28;19944;-60
2023/08/01 08:05:19;;;;;;;;;;;;;;;17.02;100.00;99913.44;4985039;28;19989;-60
2023/08/01 08:07:45;;;;;;;;;;;;;;;17.10;100.00;99914.16;4984583;28;19937;-60
2023/08/01 08:10:10;;;;;;;;;;;;;;;17.05;100.00;99926.53;4979218;28;19999;-60
2023/08/01 08:12:35;;;;;;;;;;;;;;;16.99;100.00;99921.38;4987106;28;20020;-60
2023/08/01 08:15:00;;;;;;;;;;;;;;;16.99;100.00;99919.63;4982859;28;19913;-60
2023/08/01 08:17:26;;;;;;;;;;;;;;;17.12;100.00;99938.69;4987505;28;19917;-59
2023/08/01 08:19:51;;;;;;;;;;;;;;;17.11;100.00;99936.09;4982151;28;19924;-60
2023/08/01 08:22:19;;;;;;;;;;;;;;;17.20;100.00;99931.50;4985361;28;19960;-60
2023/08/01 08:24:44;;;;;;;;;;;;;;;17.41;100.00;99926.75;4986681;28;19922;-60
2023/08/01 08:27:10;;;;;;;;;;;;;;;17.53;100.00;99931.75;4986431;28;19953;-59
2023/08/01 08:29:35;;;;;;;;;;;;;;;17.49;100.00;99934.50;4978015;28;20167;-60
2023/08/01 08:32:00;;;;;;;;;;;;;;;17.60;100.00;99944.81;4971706;28;19910;-60
2023/08/01 08:34:25;;;;;;;;;;;;;;;17.71;100.00;99937.56;4979240;28;19921;-60
2023/08/01 08:36:51;;;;;;;;;;;;;;;17.67;100.00;99933.25;4981390;28;19996;-60
2023/08/01 08:39:17;;;;;;;;;;;;;;;17.81;100.00;99936.47;4976688;28;19926;-60
2023/08/01 08:41:47;;;;;;;;;;;;;;;17.72;100.00;99947.22;4975969;28;19917;-60
2023/08/01 08:44:14;;;;;;;;;;;;;;;17.52;100.00;99948.50;4985383;28;19913;-60
2023/08/01 08:46:42;;;;;;;;;;;;;;;17.34;100.00;99947.06;4991827;28;19928;-60
2023/08/01 08:49:08;;;;;;;;;;;;;;;17.21;100.00;99951.69;4990034;28;20480;-61
2023/08/01 08:51:35;;;;;;;;;;;;;;;17.11;100.00;99951.88;4991232;28;20008;-60
2023/08/01 08:54:01;;;;;;;;;;;;;;;16.86;100.00;99973.31;4991256;28;19913;-61
2023/08/01 08:56:26;;;;;;;;;;;;;;;17.04;100.00;99973.03;4988997;28;20398;-61
2023/08/01 08:58:52;;;;;;;;;;;;;;;16.72;100.00;99989.31;4989182;28;19921;-61
2023/08/01 09:01:25;;;;;;;;;;;;;;;16.24;100.00;99968.97;4990886;28;20012;-61
2023/08/01 09:03:50;;;;;;;;;;;;;;;15.88;100.00;99965.09;4987270;28;19956;-60
2023/08/01 09:06:18;;;;;;;;;;;;;;;15.59;100.00;99972.38;4987831;28;19944;-60
2023/08/01 09:08:49;;;;;;;;;;;;;;;15.46;100.00;99968.16;4989633;28;19921;-60
2023/08/01 09:11:15;;;;;;;;;;;;;;;15.43;100.00;99969.03;4990342;28;19917;-59
2023/08/01 09:13:43;;;;;;;;;;;;;;;15.61;100.00;99964.47;4992850;28;19910;-60
2023/08/01 09:16:09;;;;;;;;;;;;;;;15.71;100.00;99970.50;4990962;28;19922;-60
2023/08/01 09:18:34;;;;;;;;;;;;;;;15.85;100.00;99965.13;4989772;28;20000;-60
2023/08/01 09:21:04;;;;;;;;;;;;;;;16.01;100.00;99974.53;4985841;28;20360;-59
2023/08/01 09:23:30;;;;;;;;;;;;;;;16.21;100.00;99973.41;4991815;28;19945;-60
2023/08/01 09:25:56;;;;;;;;;;;;;;;16.38;100.00;99979.31;4991267;28;19914;-59
2023/08/01 09:28:22;;;;;;;;;;;;;;;16.22;100.00;99985.66;4989452;28;19922;-60
2023/08/01 09:30:47;;;;;;;;;;;;;;;16.28;100.00;99982.94;4989356;28;19913;-59
2023/08/01 09:33:13;;;;;;;;;;;;;;;16.31;100.00;99996.91;4991322;28;20299;-59
2023/08/01 09:35:39;;;;;;;;;;;;;;;16.28;100.00;99993.44;4987289;28;20277;-59
2023/08/01 09:38:04;;;;;;;;;;;;;;;16.27;100.00;99994.34;4989233;28;19920;-60
2023/08/01 09:40:36;;;;;;;;;;;;;;;16.15;100.00;99991.00;4988599;28;20000;-60
2023/08/01 09:43:01;;;;;;;;;;;;;;;16.07;100.00;99998.09;4986399;28;19917;-59
2023/08/01 09:45:26;;;;;;;;;;;;;;;15.99;100.00;99985.06;4988979;28;19914;-60
2023/08/01 09:47:51;;;;;;;;;;;;;;;15.95;100.00;99987.75;4988410;28;19918;-60
2023/08/01 09:50:20;;;;;;;;;;;;;;;15.92;100.00;100004.44;4989304;28;19913;-60
2023/08/01 09:52:52;;;;;;;;;;;;;;;15.74;100.00;99999.34;4989665;28;20408;-61
2023/08/01 09:55:32;;;;;;;;;;;;;;;15.57;100.00;99991.66;4987630;28;19914;-60
2023/08/01 09:57:58;;;;;;;;;;;;;;;15.45;100.00;99995.28;4988866;28;19921;-60
2023/08/01 10:00:25;;;;;;;;;;;;;;;15.45;100.00;99996.16;4988713;28;19973;-59
2023/08/01 10:02:53;;;;;;;;;;;;;;;15.50;100.00;99995.22;4985898;28;19937;-59
2023/08/01 10:05:18;;;;;;;;;;;;;;;15.43;100.00;99990.03;4985748;28;19917;-59
2023/08/01 10:07:44;;;;;;;;;;;;;;;15.59;100.00;99995.16;4984861;28;19928;-59
2023/08/01 10:10:10;;;;;;;;;;;;;;;15.91;100.00;100007.06;4981476;28;20000;-59
2023/08/01 10:12:36;;;;;;;;;;;;;;;16.06;100.00;100006.00;4985578;28;20384;-59
2023/08/01 10:15:01;;;;;;;;;;;;;;;16.31;100.00;100002.19;4986642;28;19913;-59
2023/08/01 10:17:27;;;;;;;;;;;;;;;16.61;100.00;100001.75;4983417;28;20001;-59
2023/08/01 10:19:53;;;;;;;;;;;;;;;16.86;100.00;100013.66;4987978;28;19913;-59
2023/08/01 10:22:19;;;;;;;;;;;;;;;17.11;100.00;100001.91;4987843;28;19940;-60
2023/08/01 10:24:45;;;;;;;;;;;;;;;17.32;100.00;100014.69;4983193;28;19913;-59
2023/08/01 10:27:12;;;;;;;;;;;;;;;17.33;100.00;100012.91;4983710;28;19920;-59
2023/08/01 10:29:37;;;;;;;;;;;;;;;17.33;100.00;100015.56;4983938;28;19921;-59
2023/08/01 10:32:03;;;;;;;;;;;;;;;17.28;100.00;100015.63;4983501;28;19925;-59
2023/08/01 10:34:28;;;;;;;;;;;;;;;17.18;100.00;100020.19;4990144;28;20410;-59
2023/08/01 10:36:54;;;;;;;;;;;;;;;17.05;100.00;100010.75;4986785;28;20339;-60
2023/08/01 10:39:24;;;;;;;;;;;;;;;17.02;100.00;100014.31;4984134;28;19914;-60
2023/08/01 10:42:12;;;;;;;;;;;;;;;17.15;100.00;100007.06;4977545;28;19921;-59
2023/08/01 10:44:44;;;;;;;;;;;;;;;17.32;100.00;100005.91;4986698;28;20237;-59
2023/08/01 10:47:09;;;;;;;;;;;;;;;17.41;100.00;100015.41;4978011;28;19968;-59
2023/08/01 10:49:38;;;;;;;;;;;;;;;17.69;100.00;100011.34;4982980;28;19921;-59
2023/08/01 10:52:15;;;;;;;;;;;;;;;17.87;100.00;100002.25;4983653;28;19914;-59
2023/08/01 10:54:40;;;;;;;;;;;;;;;17.79;100.00;100012.06;4980200;28;19922;-59
2023/08/01 10:57:06;;;;;;;;;;;;;;;17.68;100.00;100025.47;4979633;28;19914;-59
2023/08/01 10:59:32;;;;;;;;;;;;;;;17.68;100.00;100025.47;4983354;28;20419;-60
2023/08/01 11:01:58;;;;;;;;;;;;;;;17.59;100.00;100025.59;4987341;28;20438;-60
2023/08/01 11:04:24;;;;;;;;;;;;;;;17.65;99.93;100029.91;4984162;28;19986;-59
2023/08/01 11:06:50;;;;;;;;;;;;;;;17.46;100.00;100032.84;4977835;28;20391;-59
2023/08/01 11:09:26;;;;;;;;;;;;;;;17.49;100.00;100035.44;4979457;28;19922;-59
2023/08/01 11:11:52;;;;;;;;;;;;;;;17.43;100.00;100034.69;4981964;28;19914;-59
2023/08/01 11:14:22;;;;;;;;;;;;;;;17.38;100.00;100037.41;4979807;28;19920;-59
2023/08/01 11:16:48;;;;;;;;;;;;;;;17.42;100.00;100031.19;4981646;28;20155;-59
2023/08/01 11:19:20;;;;;;;;;;;;;;;17.38;100.00;100033.00;4978204;28;20438;-59
2023/08/01 11:21:45;;;;;;;;;;;;;;;17.38;100.00;100034.78;4984565;28;20012;-59
2023/08/01 11:24:10;;;;;;;;;;;;;;;17.35;100.00;100037.44;4977706;28;20002;-59
2023/08/01 11:26:36;;;;;;;;;;;;;;;17.36;100.00;100042.69;4983197;28;19952;-59
2023/08/01 11:29:02;;;;;;;;;;;;;;;17.19;100.00;100037.72;4979115;28;19921;-59
2023/08/01 11:31:27;;;;;;;;;;;;;;;17.22;100.00;100042.06;4977766;28;19921;-59
2023/08/01 11:33:56;;;;;;;;;;;;;;;17.29;100.00;100061.25;4986239;28;19921;-59
2023/08/01 11:36:22;;;;;;;;;;;;;;;17.36;99.96;100049.72;4985730;28;20012;-59
2023/08/01 11:38:48;;;;;;;;;;;;;;;17.44;98.97;100052.22;4986042;28;20013;-59
2023/08/01 11:41:13;;;;;;;;;;;;;;;17.48;98.12;100054.78;4984145;28;20391;-59
2023/08/01 11:43:42;;;;;;;;;;;;;;;17.45;99.49;100052.22;4986703;28;19921;-59
2023/08/01 11:46:08;;;;;;;;;;;;;;;17.45;98.31;100060.13;4985275;28;20376;-59
2023/08/01 11:48:33;;;;;;;;;;;;;;;17.52;99.05;100056.47;4985288;28;20953;-59
2023/08/01 11:50:59;;;;;;;;;;;;;;;17.73;98.86;100060.47;4981716;28;19976;-60
2023/08/01 11:53:24;;;;;;;;;;;;;;;17.86;97.93;100062.88;4982122;28;19914;-60
2023/08/01 11:55:52;;;;;;;;;;;;;;;18.12;96.93;100072.97;4987002;28;19914;-59
2023/08/01 11:58:27;;;;;;;;;;;;;;;18.30;98.34;100069.06;4983269;28;20384;-60
2023/08/01 12:01:01;;;;;;;;;;;;;;;18.60;95.08;100059.63;4982317;28;19921;-60
2023/08/01 12:03:26;;;;;;;;;;;;;;;18.77;90.89;100061.03;4986849;28;19917;-59
2023/08/01 12:05:51;;;;;;;;;;;;;;;18.90;92.91;100072.19;4989575;28;20021;-60
2023/08/01 12:08:16;;;;;;;;;;;;;;;19.24;91.11;100063.47;4987266;28;19949;-60
2023/08/01 12:10:43;;;;;;;;;;;;;;;19.53;84.06;100075.06;4987324;28;19917;-60
2023/08/01 12:13:21;;;;;;;;;;;;;;;19.38;84.82;100063.09;4988197;28;19920;-60
2023/08/01 12:15:48;;;;;;;;;;;;;;;19.31;80.04;100072.13;4991839;28;19910;-60
2023/08/01 12:18:23;;;;;;;;;;;;;;;19.12;84.35;100069.91;4990072;28;19913;-60
2023/08/01 12:20:49;;;;;;;;;;;;;;;19.15;81.73;100066.31;4992145;28;19918;-60
2023/08/01 12:23:14;;;;;;;;;;;;;;;19.06;83.27;100073.56;4992820;28;19968;-60
2023/08/01 12:25:39;;;;;;;;;;;;;;;19.07;84.10;100069.16;4989486;28;19926;-60
2023/08/01 12:28:04;;;;;;;;;;;;;;;19.26;82.53;100059.88;4987491;28;19918;-61